createdAt,value
2016-05-14T00:00:17.184Z,12.07
2016-05-14T00:01:17.014Z,12.06
2016-05-14T00:02:17.158Z,11.95
2016-05-14T00:03:17.161Z,11.96
2016-05-14T00:04:17.147Z,11.91
2016-05-14T00:05:17.136Z,12.03
2016-05-14T00:06:17.106Z,12.01
2016-05-14T00:07:16.938Z,12
2016-05-14T00:08:16.924Z,12
2016-05-14T00:09:17.083Z,11.96
2016-05-14T00:10:17.070Z,11.87
2016-05-14T00:11:17.041Z,11.88
2016-05-14T00:12:17.044Z,11.87
2016-05-14T00:13:17.016Z,11.87
2016-05-14T00:14:17.004Z,11.84
2016-05-14T00:15:16.849Z,11.91
2016-05-14T00:16:16.993Z,11.87
2016-05-14T00:17:16.979Z,11.87
2016-05-14T00:18:16.968Z,11.77
2016-05-14T00:19:16.954Z,11.77
2016-05-14T00:20:16.941Z,11.73
2016-05-14T00:21:16.772Z,11.83
2016-05-14T00:22:16.915Z,11.76
2016-05-14T00:23:16.903Z,11.83
2016-05-14T00:24:16.906Z,11.77
2016-05-14T00:25:16.892Z,11.59
2016-05-14T00:26:16.863Z,11.72
2016-05-14T00:27:16.897Z,11.72
2016-05-14T00:28:16.837Z,11.62
2016-05-14T00:29:16.825Z,11.67
2016-05-14T00:30:16.811Z,11.62
2016-05-14T00:31:16.799Z,11.69
2016-05-14T00:32:16.786Z,11.59
2016-05-14T00:33:16.851Z,11.55
2016-05-14T00:34:16.775Z,11.52
2016-05-14T00:35:16.746Z,11.58
2016-05-14T00:36:16.719Z,11.62
2016-05-14T00:37:16.721Z,11.48
2016-05-14T00:38:16.552Z,11.58
2016-05-14T00:39:16.711Z,11.48
2016-05-14T00:40:16.526Z,11.4
2016-05-14T00:41:16.669Z,11.39
2016-05-14T00:42:16.500Z,11.5
2016-05-14T00:43:16.643Z,11.3
2016-05-14T00:44:16.630Z,11.32
2016-05-14T00:45:16.617Z,11.32
2016-05-14T00:46:16.605Z,11.21
2016-05-14T00:47:16.593Z,11.3
2016-05-14T00:48:16.438Z,11.22
2016-05-14T00:49:16.410Z,11.21
2016-05-14T00:50:16.553Z,11.29
2016-05-14T00:51:16.540Z,11.27
2016-05-14T00:52:16.542Z,11.24
2016-05-14T00:53:16.545Z,11.16
2016-05-14T00:54:16.501Z,11.16
2016-05-14T00:55:16.489Z,11.07
2016-05-14T00:56:16.320Z,11.11
2016-05-14T00:57:16.478Z,11.12
2016-05-14T00:58:16.449Z,11.12
2016-05-14T00:59:16.452Z,11.07
2016-05-14T01:00:16.439Z,11.11
2016-05-14T01:01:16.426Z,11.07
2016-05-14T01:02:16.398Z,11.08
2016-05-14T01:03:16.244Z,11.09
2016-05-14T01:04:16.372Z,11
2016-05-14T01:05:16.358Z,10.87
2016-05-14T01:06:16.189Z,10.82
2016-05-14T01:07:16.177Z,10.79
2016-05-14T01:08:16.320Z,10.82
2016-05-14T01:09:16.308Z,10.91
2016-05-14T01:10:16.294Z,10.87
2016-05-14T01:11:16.282Z,10.91
2016-05-14T01:12:16.268Z,10.9
2016-05-14T01:13:16.255Z,10.83
2016-05-14T01:14:16.243Z,10.94
2016-05-14T01:15:16.245Z,10.79
2016-05-14T01:16:16.217Z,10.83
2016-05-14T01:17:16.204Z,10.78
2016-05-14T01:18:16.518Z,10.85
2016-05-14T01:19:16.179Z,10.82
2016-05-14T01:20:16.165Z,10.85
2016-05-14T01:21:16.151Z,10.71
2016-05-14T01:22:16.139Z,10.82
2016-05-14T01:23:16.126Z,10.87
2016-05-14T01:24:16.098Z,10.9
2016-05-14T01:25:16.084Z,10.87
2016-05-14T01:26:16.087Z,10.82
2016-05-14T01:27:16.168Z,10.82
2016-05-14T01:28:16.061Z,10.74
2016-05-14T01:29:15.892Z,10.75
2016-05-14T01:30:16.036Z,10.85
2016-05-14T01:31:16.007Z,10.76
2016-05-14T01:32:15.995Z,10.79
2016-05-14T01:33:16.419Z,10.89
2016-05-14T01:34:15.969Z,10.71
2016-05-14T01:35:15.956Z,10.69
2016-05-14T01:36:15.942Z,10.78
2016-05-14T01:37:15.929Z,10.87
2016-05-14T01:38:15.916Z,10.94
2016-05-14T01:39:22.169Z,10.76
2016-05-14T01:40:15.891Z,10.85
2016-05-14T01:41:15.862Z,10.78
2016-05-14T01:42:15.866Z,10.78
2016-05-14T01:43:15.679Z,10.78
2016-05-14T01:44:15.838Z,10.79
2016-05-14T01:45:15.841Z,10.79
2016-05-14T01:46:15.813Z,10.83
2016-05-14T01:47:15.800Z,10.78
2016-05-14T01:48:16.115Z,10.66
2016-05-14T01:49:16.024Z,10.71
2016-05-14T01:50:15.761Z,10.76
2016-05-14T01:51:15.733Z,10.74
2016-05-14T01:52:15.735Z,10.85
2016-05-14T01:53:15.723Z,10.81
2016-05-14T01:54:15.709Z,10.82
2016-05-14T01:55:15.525Z,10.81
2016-05-14T01:56:15.528Z,10.71
2016-05-14T01:57:15.670Z,10.82
2016-05-14T01:58:15.502Z,10.83
2016-05-14T01:59:15.645Z,10.91
2016-05-14T02:00:15.617Z,10.72
2016-05-14T02:01:15.619Z,10.75
2016-05-14T02:02:15.606Z,10.74
2016-05-14T02:03:15.968Z,10.78
2016-05-14T02:04:15.580Z,10.75
2016-05-14T02:05:15.583Z,10.66
2016-05-14T02:06:15.538Z,10.69
2016-05-14T02:07:15.525Z,10.66
2016-05-14T02:08:15.560Z,10.67
2016-05-14T02:09:15.516Z,10.63
2016-05-14T02:10:15.503Z,10.67
2016-05-14T02:11:15.474Z,10.72
2016-05-14T02:12:15.477Z,10.71
2016-05-14T02:13:15.463Z,10.74
2016-05-14T02:14:15.451Z,10.61
2016-05-14T02:15:15.422Z,10.6
2016-05-14T02:16:15.410Z,10.6
2016-05-14T02:17:15.241Z,10.53
2016-05-14T02:18:15.758Z,10.49
2016-05-14T02:19:15.215Z,10.47
2016-05-14T02:20:15.357Z,10.51
2016-05-14T02:21:15.345Z,10.42
2016-05-14T02:22:15.191Z,10.42
2016-05-14T02:23:15.318Z,10.42
2016-05-14T02:24:15.306Z,10.44
2016-05-14T02:25:15.137Z,10.37
2016-05-14T02:26:15.280Z,10.42
2016-05-14T02:27:15.267Z,10.37
2016-05-14T02:28:15.253Z,10.27
2016-05-14T02:29:15.242Z,10.32
2016-05-14T02:30:15.229Z,10.34
2016-05-14T02:31:15.215Z,10.17
2016-05-14T02:32:15.218Z,10.22
2016-05-14T02:33:15.190Z,10.22
2016-05-14T02:34:15.176Z,10.19
2016-05-14T02:35:15.008Z,10.22
2016-05-14T02:36:14.994Z,10.14
2016-05-14T02:37:14.997Z,10.17
2016-05-14T02:38:15.187Z,10.22
2016-05-14T02:39:15.003Z,10.24
2016-05-14T02:40:14.990Z,10.12
2016-05-14T02:41:15.086Z,10.17
2016-05-14T02:42:15.072Z,10.22
2016-05-14T02:43:15.044Z,10.2
2016-05-14T02:44:14.891Z,10.2
2016-05-14T02:45:15.035Z,10.23
2016-05-14T02:46:15.005Z,10.23
2016-05-14T02:47:15.008Z,10.14
2016-05-14T02:48:15.527Z,10.06
2016-05-14T02:49:14.982Z,10.09
2016-05-14T02:50:14.954Z,10.05
2016-05-14T02:51:14.940Z,10.04
2016-05-14T02:52:14.928Z,9.9
2016-05-14T02:53:14.932Z,9.88
2016-05-14T02:54:14.901Z,9.9
2016-05-14T02:55:14.889Z,9.81
2016-05-14T02:56:14.876Z,9.81
2016-05-14T02:57:14.863Z,9.79
2016-05-14T02:58:14.851Z,9.72
2016-05-14T02:59:14.681Z,9.61
2016-05-14T03:00:14.825Z,9.63
2016-05-14T03:01:14.811Z,9.74
2016-05-14T03:02:14.798Z,9.74
2016-05-14T03:03:14.817Z,9.71
2016-05-14T03:04:14.773Z,9.72
2016-05-14T03:05:14.603Z,9.8
2016-05-14T03:06:14.591Z,9.77
2016-05-14T03:07:14.734Z,9.83
2016-05-14T03:08:14.721Z,9.8
2016-05-14T03:09:14.692Z,9.77
2016-05-14T03:10:14.680Z,9.76
2016-05-14T03:11:14.682Z,9.81
2016-05-14T03:12:14.653Z,9.9
2016-05-14T03:13:14.641Z,9.8
2016-05-14T03:14:14.628Z,9.88
2016-05-14T03:15:14.615Z,9.8
2016-05-14T03:16:14.602Z,9.91
2016-05-14T03:17:14.589Z,9.77
2016-05-14T03:18:14.576Z,9.77
2016-05-14T03:19:14.563Z,9.77
2016-05-14T03:20:14.549Z,9.81
2016-05-14T03:21:14.537Z,9.9
2016-05-14T03:22:14.368Z,9.88
2016-05-14T03:23:14.512Z,9.84
2016-05-14T03:24:14.499Z,9.8
2016-05-14T03:25:14.485Z,9.77
2016-05-14T03:26:14.473Z,9.77
2016-05-14T03:27:14.303Z,9.95
2016-05-14T03:28:14.446Z,10.04
2016-05-14T03:29:14.434Z,10.12
2016-05-14T03:30:14.248Z,10.04
2016-05-14T03:31:14.393Z,10.09
2016-05-14T03:32:14.379Z,10.02
2016-05-14T03:33:14.382Z,10.12
2016-05-14T03:34:14.212Z,10.09
2016-05-14T03:35:14.184Z,10.12
2016-05-14T03:36:14.187Z,10.12
2016-05-14T03:37:14.158Z,9.99
2016-05-14T03:38:14.302Z,10.12
2016-05-14T03:39:14.289Z,9.96
2016-05-14T03:40:14.276Z,10.02
2016-05-14T03:41:14.263Z,10.01
2016-05-14T03:42:14.250Z,10.01
2016-05-14T03:43:14.237Z,10.06
2016-05-14T03:44:14.224Z,10.05
2016-05-14T03:45:14.211Z,10.04
2016-05-14T03:46:14.198Z,10.04
2016-05-14T03:47:14.029Z,10.01
2016-05-14T03:48:14.672Z,9.96
2016-05-14T03:49:14.159Z,9.9
2016-05-14T03:50:14.146Z,10.02
2016-05-14T03:51:14.133Z,9.99
2016-05-14T03:52:14.121Z,10.05
2016-05-14T03:53:14.107Z,9.84
2016-05-14T03:54:14.095Z,9.87
2016-05-14T03:55:13.910Z,9.84
2016-05-14T03:56:13.912Z,9.84
2016-05-14T03:57:13.885Z,9.83
2016-05-14T03:58:14.042Z,9.86
2016-05-14T03:59:14.029Z,9.94
2016-05-14T04:00:14.002Z,9.87
2016-05-14T04:01:13.989Z,9.87
2016-05-14T04:02:13.992Z,9.91
2016-05-14T04:03:14.353Z,9.96
2016-05-14T04:04:13.950Z,9.99
2016-05-14T04:05:13.953Z,9.96
2016-05-14T04:06:13.923Z,9.96
2016-05-14T04:07:13.911Z,9.79
2016-05-14T04:08:13.898Z,9.95
2016-05-14T04:09:13.901Z,9.88
2016-05-14T04:10:13.873Z,9.96
2016-05-14T04:11:13.859Z,9.96
2016-05-14T04:12:13.847Z,9.87
2016-05-14T04:13:13.677Z,9.86
2016-05-14T04:14:13.664Z,9.79
2016-05-14T04:15:13.807Z,9.84
2016-05-14T04:16:13.638Z,9.86
2016-05-14T04:17:13.797Z,9.91
2016-05-14T04:18:14.035Z,9.83
2016-05-14T04:19:13.755Z,9.83
2016-05-14T04:20:13.733Z,9.84
2016-05-14T04:21:13.623Z,9.87
2016-05-14T04:22:13.808Z,9.9
2016-05-14T04:23:13.839Z,9.88
2016-05-14T04:24:13.712Z,9.8
2016-05-14T04:25:13.895Z,9.77
2016-05-14T04:26:13.882Z,9.74
2016-05-14T04:27:13.884Z,9.79
2016-05-14T04:28:13.746Z,9.74
2016-05-14T04:29:13.889Z,9.79
2016-05-14T04:30:13.905Z,9.94
2016-05-14T04:31:13.883Z,9.88
2016-05-14T04:32:13.719Z,10.01
2016-05-14T04:33:13.744Z,10.2
2016-05-14T04:34:13.861Z,10.37
2016-05-14T04:35:13.869Z,10.42
2016-05-14T04:36:13.859Z,10.49
2016-05-14T04:37:13.832Z,10.69
2016-05-14T04:38:13.821Z,10.63
2016-05-14T04:39:13.810Z,10.63
2016-05-14T04:40:13.814Z,10.63
2016-05-14T04:41:13.787Z,10.63
2016-05-14T04:42:13.774Z,10.63
2016-05-14T04:43:13.763Z,10.69
2016-05-14T04:44:13.750Z,10.49
2016-05-14T04:45:13.738Z,10.49
2016-05-14T04:46:13.569Z,10.47
2016-05-14T04:47:13.729Z,10.51
2016-05-14T04:48:13.559Z,10.49
2016-05-14T04:49:13.704Z,10.51
2016-05-14T04:50:13.691Z,10.45
2016-05-14T04:51:13.521Z,10.45
2016-05-14T04:52:13.493Z,10.49
2016-05-14T04:53:13.635Z,10.56
2016-05-14T04:54:13.310Z,10.49
2016-05-14T04:55:13.610Z,10.63
2016-05-14T04:56:13.598Z,10.56
2016-05-14T04:57:13.585Z,10.64
2016-05-14T04:58:13.587Z,10.57
2016-05-14T04:59:13.574Z,10.54
2016-05-14T05:00:13.545Z,10.47
2016-05-14T05:01:13.532Z,10.53
2016-05-14T05:02:13.535Z,10.61
2016-05-14T05:03:13.522Z,10.53
2016-05-14T05:04:13.526Z,10.61
2016-05-14T05:05:13.497Z,10.53
2016-05-14T05:06:13.484Z,10.69
2016-05-14T05:07:13.503Z,10.66
2016-05-14T05:08:13.458Z,10.66
2016-05-14T05:09:13.429Z,10.63
2016-05-14T05:10:13.431Z,10.69
2016-05-14T05:11:13.419Z,10.76
2016-05-14T05:12:13.406Z,10.87
2016-05-14T05:13:13.394Z,10.82
2016-05-14T05:14:13.381Z,10.91
2016-05-14T05:15:13.383Z,11.29
2016-05-14T05:16:13.355Z,11.54
2016-05-14T05:17:13.357Z,11.51
2016-05-14T05:18:13.188Z,11.54
2016-05-14T05:19:13.174Z,11.5
2016-05-14T05:20:13.319Z,11.3
2016-05-14T05:21:13.133Z,11.33
2016-05-14T05:22:13.136Z,11.33
2016-05-14T05:23:13.264Z,11.29
2016-05-14T05:24:13.110Z,11.14
2016-05-14T05:25:13.254Z,11.04
2016-05-14T05:26:13.224Z,10.97
2016-05-14T05:27:12.915Z,11.03
2016-05-14T05:28:13.199Z,11.01
2016-05-14T05:29:13.187Z,10.9
2016-05-14T05:30:13.189Z,10.94
2016-05-14T05:31:13.020Z,10.96
2016-05-14T05:32:13.007Z,10.99
2016-05-14T05:33:13.150Z,11.08
2016-05-14T05:34:13.653Z,10.97
2016-05-14T05:35:12.968Z,10.96
2016-05-14T05:36:13.111Z,10.87
2016-05-14T05:37:13.098Z,10.82
2016-05-14T05:38:13.101Z,10.9
2016-05-14T05:39:13.072Z,10.82
2016-05-14T05:40:13.059Z,10.64
2016-05-14T05:41:13.061Z,10.74
2016-05-14T05:42:13.033Z,10.75
2016-05-14T05:43:13.021Z,10.81
2016-05-14T05:44:13.055Z,10.75
2016-05-14T05:45:13.011Z,10.78
2016-05-14T05:46:12.997Z,10.85
2016-05-14T05:47:12.985Z,10.83
2016-05-14T05:48:12.972Z,10.85
2016-05-14T05:49:12.958Z,10.76
2016-05-14T05:50:12.789Z,10.66
2016-05-14T05:51:12.932Z,10.71
2016-05-14T05:52:12.920Z,10.79
2016-05-14T05:53:12.908Z,10.74
2016-05-14T05:54:12.894Z,10.83
2016-05-14T05:55:12.882Z,10.9
2016-05-14T05:56:12.868Z,10.85
2016-05-14T05:57:12.699Z,10.99
2016-05-14T05:58:12.686Z,11.08
2016-05-14T05:59:12.829Z,11.22
2016-05-14T06:00:12.816Z,11.26
2016-05-14T06:01:12.803Z,11.19
2016-05-14T06:02:12.791Z,11.3
2016-05-14T06:03:12.840Z,11.26
2016-05-14T06:04:13.124Z,11.39
2016-05-14T06:05:12.612Z,11.51
2016-05-14T06:06:12.754Z,11.58
2016-05-14T06:07:12.742Z,11.7
2016-05-14T06:08:12.557Z,11.72
2016-05-14T06:09:12.700Z,11.72
2016-05-14T06:10:12.547Z,11.51
2016-05-14T06:11:12.689Z,11.51
2016-05-14T06:12:12.677Z,11.62
2016-05-14T06:13:12.664Z,11.75
2016-05-14T06:14:12.651Z,11.76
2016-05-14T06:15:12.639Z,11.81
2016-05-14T06:16:12.625Z,11.81
2016-05-14T06:17:12.612Z,11.83
2016-05-14T06:18:12.599Z,11.8
2016-05-14T06:19:12.617Z,11.72
2016-05-14T06:20:12.588Z,11.66
2016-05-14T06:21:12.576Z,11.73
2016-05-14T06:22:12.563Z,11.69
2016-05-14T06:23:12.550Z,11.63
2016-05-14T06:24:12.538Z,11.59
2016-05-14T06:25:12.524Z,11.85
2016-05-14T06:26:12.371Z,11.91
2016-05-14T06:27:12.513Z,11.98
2016-05-14T06:28:12.501Z,11.9
2016-05-14T06:29:12.316Z,11.91
2016-05-14T06:30:12.318Z,12.04
2016-05-14T06:31:12.462Z,11.96
2016-05-14T06:32:12.449Z,12.16
2016-05-14T06:33:12.437Z,12.14
2016-05-14T06:34:12.283Z,12.09
2016-05-14T06:35:12.254Z,12.25
2016-05-14T06:36:12.413Z,12.16
2016-05-14T06:37:12.400Z,12.11
2016-05-14T06:38:12.387Z,12.04
2016-05-14T06:39:12.375Z,11.93
2016-05-14T06:40:12.205Z,12.03
2016-05-14T06:41:12.192Z,12.11
2016-05-14T06:42:12.350Z,12.22
2016-05-14T06:43:12.322Z,12.27
2016-05-14T06:44:12.310Z,12.21
2016-05-14T06:45:12.141Z,12.35
2016-05-14T06:46:12.300Z,12.37
2016-05-14T06:47:12.302Z,12.55
2016-05-14T06:48:12.274Z,12.71
2016-05-14T06:49:12.277Z,12.71
2016-05-14T06:50:12.247Z,12.47
2016-05-14T06:51:12.250Z,12.35
2016-05-14T06:52:12.237Z,12.47
2016-05-14T06:53:12.225Z,12.6
2016-05-14T06:54:12.056Z,12.68
2016-05-14T06:55:12.199Z,12.85
2016-05-14T06:56:12.202Z,13.01
2016-05-14T06:57:12.173Z,13.02
2016-05-14T06:58:12.176Z,12.85
2016-05-14T06:59:12.007Z,12.86
2016-05-14T07:00:12.165Z,13
2016-05-14T07:01:11.996Z,13.02
2016-05-14T07:02:11.982Z,13.15
2016-05-14T07:03:11.970Z,13.45
2016-05-14T07:04:12.129Z,13.49
2016-05-14T07:05:12.115Z,13.35
2016-05-14T07:06:12.104Z,13.42
2016-05-14T07:07:12.090Z,13.35
2016-05-14T07:08:12.078Z,13.26
2016-05-14T07:09:12.065Z,13.44
2016-05-14T07:10:12.067Z,13.3
2016-05-14T07:11:12.054Z,13.23
2016-05-14T07:12:12.041Z,13.23
2016-05-14T07:13:12.044Z,13.26
2016-05-14T07:14:11.859Z,13.36
2016-05-14T07:15:12.018Z,13.18
2016-05-14T07:16:12.006Z,13.15
2016-05-14T07:17:11.852Z,13.22
2016-05-14T07:18:11.980Z,13.38
2016-05-14T07:19:12.186Z,13.2
2016-05-14T07:20:11.828Z,13.1
2016-05-14T07:21:11.956Z,13.13
2016-05-14T07:22:11.974Z,13.15
2016-05-14T07:23:11.946Z,13.19
2016-05-14T07:24:11.917Z,13.1
2016-05-14T07:25:11.920Z,13.01
2016-05-14T07:26:11.908Z,12.97
2016-05-14T07:27:11.909Z,13.01
2016-05-14T07:28:11.741Z,13.01
2016-05-14T07:29:11.885Z,13.02
2016-05-14T07:30:11.871Z,13.16
2016-05-14T07:31:11.858Z,13.1
2016-05-14T07:32:11.860Z,13.01
2016-05-14T07:33:12.020Z,12.97
2016-05-14T07:34:11.835Z,12.97
2016-05-14T07:35:11.665Z,12.95
2016-05-14T07:36:11.809Z,13
2016-05-14T07:37:11.796Z,13.02
2016-05-14T07:38:11.799Z,13.19
2016-05-14T07:39:11.787Z,13.22
2016-05-14T07:40:11.773Z,13.33
2016-05-14T07:41:11.760Z,13.46
2016-05-14T07:42:11.747Z,13.15
2016-05-14T07:43:11.733Z,13.19
2016-05-14T07:44:11.737Z,13.18
2016-05-14T07:45:11.583Z,13.25
2016-05-14T07:46:11.711Z,13.41
2016-05-14T07:47:11.714Z,13.36
2016-05-14T07:48:12.107Z,13.38
2016-05-14T07:49:12.095Z,13.44
2016-05-14T07:50:11.691Z,13.49
2016-05-14T07:51:11.522Z,13.49
2016-05-14T07:52:11.508Z,13.59
2016-05-14T07:53:11.667Z,13.46
2016-05-14T07:54:11.655Z,13.6
2016-05-14T07:55:11.641Z,13.81
2016-05-14T07:56:11.628Z,13.56
2016-05-14T07:57:11.460Z,13.25
2016-05-14T07:58:11.618Z,13.12
2016-05-14T07:59:11.605Z,13.22
2016-05-14T08:00:11.593Z,13.22
2016-05-14T08:01:11.580Z,13.38
2016-05-14T08:02:11.582Z,13.39
2016-05-14T08:03:11.554Z,13.35
2016-05-14T08:04:11.557Z,13.22
2016-05-14T08:05:11.371Z,13.38
2016-05-14T08:06:11.546Z,13.39
2016-05-14T08:07:11.517Z,13.22
2016-05-14T08:08:11.504Z,13.07
2016-05-14T08:09:11.507Z,13.04
2016-05-14T08:10:11.338Z,13.02
2016-05-14T08:11:11.169Z,13.01
2016-05-14T08:12:11.468Z,13
2016-05-14T08:13:11.298Z,13
2016-05-14T08:14:11.442Z,12.86
2016-05-14T08:15:11.273Z,12.72
2016-05-14T08:16:11.276Z,12.69
2016-05-14T08:17:11.419Z,12.65
2016-05-14T08:18:11.891Z,12.68
2016-05-14T08:19:11.409Z,12.57
2016-05-14T08:20:11.396Z,12.68
2016-05-14T08:21:11.399Z,12.79
2016-05-14T08:22:11.370Z,12.97
2016-05-14T08:23:11.358Z,13.16
2016-05-14T08:24:11.188Z,12.98
2016-05-14T08:25:11.175Z,12.89
2016-05-14T08:26:11.163Z,12.8
2016-05-14T08:27:11.321Z,12.4
2016-05-14T08:28:11.308Z,12.31
2016-05-14T08:29:11.295Z,12.37
2016-05-14T08:30:11.298Z,12.11
2016-05-14T08:31:11.269Z,11.93
2016-05-14T08:32:11.272Z,11.95
2016-05-14T08:33:11.260Z,12.03
2016-05-14T08:34:11.325Z,12.14
2016-05-14T08:35:11.093Z,12
2016-05-14T08:36:11.236Z,11.98
2016-05-14T08:37:11.207Z,11.91
2016-05-14T08:38:11.210Z,11.83
2016-05-14T08:39:11.041Z,11.81
2016-05-14T08:40:11.168Z,11.96
2016-05-14T08:41:11.171Z,11.91
2016-05-14T08:42:11.159Z,11.95
2016-05-14T08:43:11.145Z,12.16
2016-05-14T08:44:11.132Z,12.09
2016-05-14T08:45:11.135Z,12.09
2016-05-14T08:46:10.967Z,12.14
2016-05-14T08:47:10.953Z,12.28
2016-05-14T08:48:10.987Z,12.44
2016-05-14T08:49:10.943Z,12.64
2016-05-14T08:50:10.914Z,12.85
2016-05-14T08:51:11.089Z,12.95
2016-05-14T08:52:11.060Z,13.02
2016-05-14T08:53:10.891Z,12.93
2016-05-14T08:54:11.050Z,13.01
2016-05-14T08:55:11.022Z,13.35
2016-05-14T08:56:11.024Z,14.02
2016-05-14T08:57:10.855Z,14.25
2016-05-14T08:58:10.999Z,14.55
2016-05-14T08:59:11.002Z,15
2016-05-14T09:00:10.675Z,15.32
2016-05-14T09:01:10.975Z,15.76
2016-05-14T09:02:10.977Z,16.07
2016-05-14T09:03:10.965Z,16.45
2016-05-14T09:04:10.686Z,16.56
2016-05-14T09:05:10.970Z,16.69
2016-05-14T09:06:10.645Z,16.56
2016-05-14T09:07:10.787Z,16.46
2016-05-14T09:08:10.947Z,16.51
2016-05-14T09:09:10.950Z,16.1
2016-05-14T09:10:10.937Z,16.13
2016-05-14T09:11:10.924Z,16.41
2016-05-14T09:12:10.957Z,16.83
2016-05-14T09:13:10.929Z,17.33
2016-05-14T09:14:10.932Z,17.34
2016-05-14T09:15:10.762Z,17.48
2016-05-14T09:16:10.922Z,17.85
2016-05-14T09:17:10.924Z,17.74
2016-05-14T09:18:10.911Z,17.42
2016-05-14T09:19:10.915Z,17.26
2016-05-14T09:20:10.916Z,17.29
2016-05-14T09:21:10.904Z,17.04
2016-05-14T09:22:10.891Z,16.81
2016-05-14T09:23:10.894Z,16.38
2016-05-14T09:24:10.897Z,16.21
2016-05-14T09:25:11.117Z,16.29
2016-05-14T09:26:10.730Z,16.46
2016-05-14T09:27:10.888Z,16.51
2016-05-14T09:28:10.875Z,16.46
2016-05-14T09:29:10.878Z,16.51
2016-05-14T09:30:10.865Z,16.71
2016-05-14T09:31:10.869Z,16.6
2016-05-14T09:32:10.699Z,16.38
2016-05-14T09:33:10.702Z,16.21
2016-05-14T09:34:10.736Z,16.25
2016-05-14T09:35:10.691Z,16.21
2016-05-14T09:36:10.694Z,15.62
2016-05-14T09:37:10.837Z,15.21
2016-05-14T09:38:10.840Z,15.22
2016-05-14T09:39:10.827Z,14.81
2016-05-14T09:40:10.657Z,14.66
2016-05-14T09:41:10.817Z,14.45
2016-05-14T09:42:10.647Z,14.11
2016-05-14T09:43:10.790Z,13.89
2016-05-14T09:44:10.623Z,13.94
2016-05-14T09:45:10.640Z,14.02
2016-05-14T09:46:10.784Z,14.25
2016-05-14T09:47:10.614Z,14.12
2016-05-14T09:48:10.773Z,14.11
2016-05-14T09:49:11.854Z,14.02
2016-05-14T09:50:10.747Z,14.12
2016-05-14T09:51:10.750Z,14.65
2016-05-14T09:52:10.737Z,14.91
2016-05-14T09:53:10.724Z,15.04
2016-05-14T09:54:10.711Z,15.04
2016-05-14T09:55:10.698Z,14.96
2016-05-14T09:56:10.717Z,15.03
2016-05-14T09:57:10.688Z,15.21
2016-05-14T09:58:10.691Z,15.67
2016-05-14T09:59:10.678Z,15.79
2016-05-14T10:00:10.680Z,15.97
2016-05-14T10:01:10.668Z,16.1
2016-05-14T10:02:10.655Z,16.1
2016-05-14T10:03:10.657Z,16.36
2016-05-14T10:04:10.957Z,16.42
2016-05-14T10:05:10.632Z,16.41
2016-05-14T10:06:10.477Z,16.42
2016-05-14T10:07:10.637Z,16.41
2016-05-14T10:08:10.624Z,16.36
2016-05-14T10:09:10.611Z,16.39
2016-05-14T10:10:10.458Z,16.64
2016-05-14T10:11:10.600Z,17.04
2016-05-14T10:12:10.588Z,17.36
2016-05-14T10:13:10.622Z,17.85
2016-05-14T10:14:10.593Z,18.1
2016-05-14T10:15:10.424Z,17.83
2016-05-14T10:16:10.583Z,18.18
2016-05-14T10:17:10.586Z,17.85
2016-05-14T10:18:10.573Z,17.67
2016-05-14T10:19:11.137Z,17.12
2016-05-14T10:20:10.562Z,16.81
2016-05-14T10:21:10.564Z,16.36
2016-05-14T10:22:10.552Z,15.91
2016-05-14T10:23:10.540Z,15.8
2016-05-14T10:24:10.542Z,15.37
2016-05-14T10:25:10.545Z,15.26
2016-05-14T10:26:10.531Z,15.14
2016-05-14T10:27:10.519Z,15.25
2016-05-14T10:28:10.522Z,15.09
2016-05-14T10:29:10.524Z,15.24
2016-05-14T10:30:10.355Z,15.28
2016-05-14T10:31:10.499Z,15.29
2016-05-14T10:32:10.329Z,15.14
2016-05-14T10:33:10.488Z,15.18
2016-05-14T10:34:11.116Z,15.55
2016-05-14T10:35:10.477Z,15.91
2016-05-14T10:36:10.308Z,15.97
2016-05-14T10:37:10.468Z,16.02
2016-05-14T10:38:10.455Z,15.94
2016-05-14T10:39:10.302Z,16.27
2016-05-14T10:40:10.288Z,16.42
2016-05-14T10:41:10.447Z,16.56
2016-05-14T10:42:10.435Z,16.78
2016-05-14T10:43:10.437Z,16.83
2016-05-14T10:44:10.424Z,16.66
2016-05-14T10:45:10.411Z,16.64
2016-05-14T10:46:10.414Z,16.72
2016-05-14T10:47:10.417Z,16.71
2016-05-14T10:48:10.403Z,16.42
2016-05-14T10:49:10.750Z,16.35
2016-05-14T10:50:10.392Z,16.31
2016-05-14T10:51:10.395Z,15.95
2016-05-14T10:52:10.384Z,15.79
2016-05-14T10:53:10.370Z,15.94
2016-05-14T10:54:10.356Z,16.39
2016-05-14T10:55:10.359Z,16.9
2016-05-14T10:56:10.347Z,16.93
2016-05-14T10:57:10.350Z,16.96
2016-05-14T10:58:10.352Z,17.19
2016-05-14T10:59:10.339Z,17.12
2016-05-14T11:00:10.342Z,16.87
2016-05-14T11:01:10.330Z,16.83
2016-05-14T11:02:10.332Z,17
2016-05-14T11:03:10.178Z,16.72
2016-05-14T11:04:10.399Z,16.39
2016-05-14T11:05:10.308Z,16.23
2016-05-14T11:06:10.311Z,16.02
2016-05-14T11:07:10.298Z,15.94
2016-05-14T11:08:10.302Z,15.92
2016-05-14T11:09:10.287Z,16.02
2016-05-14T11:10:10.290Z,16.07
2016-05-14T11:11:10.278Z,15.83
2016-05-14T11:12:10.280Z,15.69
2016-05-14T11:13:10.112Z,15.68
2016-05-14T11:14:10.254Z,15.87
2016-05-14T11:15:10.257Z,16.02
2016-05-14T11:16:10.245Z,16.02
2016-05-14T11:17:10.091Z,16.07
2016-05-14T11:18:10.234Z,16.17
2016-05-14T11:19:10.237Z,16.31
2016-05-14T11:20:09.927Z,16.31
2016-05-14T11:21:10.211Z,16.1
2016-05-14T11:22:10.214Z,15.76
2016-05-14T11:23:10.059Z,15.73
2016-05-14T11:24:10.203Z,15.65
2016-05-14T11:25:10.190Z,15.82
2016-05-14T11:26:10.193Z,16.01
2016-05-14T11:27:10.181Z,16.23
2016-05-14T11:28:10.183Z,16.12
2016-05-14T11:29:10.013Z,16.31
2016-05-14T11:30:10.172Z,16.42
2016-05-14T11:31:10.003Z,16.5
2016-05-14T11:32:09.991Z,16.35
2016-05-14T11:33:10.149Z,16.08
2016-05-14T11:34:10.136Z,16.08
2016-05-14T11:35:10.124Z,16.02
2016-05-14T11:36:10.127Z,15.98
2016-05-14T11:37:10.129Z,16.07
2016-05-14T11:38:10.116Z,16.24
2016-05-14T11:39:10.103Z,16.46
2016-05-14T11:40:10.105Z,16.5
2016-05-14T11:41:10.124Z,16.43
2016-05-14T11:42:10.079Z,16.53
2016-05-14T11:43:10.098Z,16.9
2016-05-14T11:44:09.929Z,17
2016-05-14T11:45:10.088Z,17.09
2016-05-14T11:46:10.075Z,16.87
2016-05-14T11:47:10.062Z,16.93
2016-05-14T11:48:10.065Z,17.04
2016-05-14T11:49:10.209Z,17.06
2016-05-14T11:50:10.054Z,16.56
2016-05-14T11:51:10.057Z,16.5
2016-05-14T11:52:10.045Z,16.42
2016-05-14T11:53:10.032Z,16.38
2016-05-14T11:54:10.034Z,16.24
2016-05-14T11:55:10.021Z,16.04
2016-05-14T11:56:10.023Z,15.95
2016-05-14T11:57:10.026Z,16.04
2016-05-14T11:58:10.014Z,16.15
2016-05-14T11:59:10.000Z,16.38
2016-05-14T12:00:10.003Z,16.43
2016-05-14T12:01:10.005Z,16.51
2016-05-14T12:02:09.993Z,16.51
2016-05-14T12:03:09.980Z,16.66
2016-05-14T12:04:09.952Z,16.73
2016-05-14T12:05:09.844Z,16.46
2016-05-14T12:06:09.972Z,16.54
2016-05-14T12:07:09.960Z,16.45
2016-05-14T12:08:09.805Z,16.13
2016-05-14T12:09:09.950Z,16.15
2016-05-14T12:10:09.935Z,15.89
2016-05-14T12:11:09.782Z,15.91
2016-05-14T12:12:09.770Z,15.76
2016-05-14T12:13:09.929Z,15.89
2016-05-14T12:14:09.916Z,15.98
2016-05-14T12:15:09.919Z,15.91
2016-05-14T12:16:09.907Z,15.94
2016-05-14T12:17:09.893Z,16.12
2016-05-14T12:18:09.880Z,16.53
2016-05-14T12:19:09.960Z,16.43
2016-05-14T12:20:09.870Z,16.68
2016-05-14T12:21:09.873Z,16.81
2016-05-14T12:22:09.859Z,16.83
2016-05-14T12:23:09.862Z,16.64
2016-05-14T12:24:09.849Z,16.46
2016-05-14T12:25:09.836Z,16.66
2016-05-14T12:26:09.839Z,16.86
2016-05-14T12:27:09.701Z,16.75
2016-05-14T12:28:09.672Z,16.56
2016-05-14T12:29:09.816Z,16.29
2016-05-14T12:30:09.819Z,16.21
2016-05-14T12:31:09.805Z,16.15
2016-05-14T12:32:09.808Z,16.12
2016-05-14T12:33:09.794Z,16.24
2016-05-14T12:34:09.641Z,16.43
2016-05-14T12:35:09.785Z,16.68
2016-05-14T12:36:09.772Z,16.86
2016-05-14T12:37:09.618Z,16.97
2016-05-14T12:38:09.761Z,17
2016-05-14T12:39:09.749Z,16.91
2016-05-14T12:40:09.752Z,16.96
2016-05-14T12:41:09.755Z,17.59
2016-05-14T12:42:09.757Z,18.12
2016-05-14T12:43:09.572Z,18.38
2016-05-14T12:44:09.732Z,18.83
2016-05-14T12:45:09.718Z,19.36
2016-05-14T12:46:09.580Z,19.79
2016-05-14T12:47:09.723Z,19.91
2016-05-14T12:48:09.726Z,19.51
2016-05-14T12:49:09.791Z,19.37
2016-05-14T12:50:09.700Z,19.14
2016-05-14T12:51:09.704Z,19.31
2016-05-14T12:52:09.706Z,19.25
2016-05-14T12:53:09.692Z,18.8
2016-05-14T12:54:09.367Z,18.4
2016-05-14T12:55:09.682Z,18.37
2016-05-14T12:56:09.685Z,18.32
2016-05-14T12:57:09.672Z,18.3
2016-05-14T12:58:09.675Z,18.14